KBCB/BCB METAR and TAF weather

Enter ICAO airport designator
Station Type Date Time Source
KBCB METAR 2022/08/13 12:35 UTC NOAA

KBCB 131235Z AUTO 00000KT 10SM CLR 17/16 A3025 RMK AO2 LTG DSNT SE T01730164


Station Type Date Time Source
KBCB Decoded METAR 2022/08/13 12:35 UTC NOAA

Virginia Tech Airport, VA, United States (KBCB) 37-13N 080-25W
Aug 13, 2022 - 08:35 AM EDT / 2022.08.13 1235 UTC
Wind: Calm:0
Visibility: 10 mile(s):0
Sky conditions: clear
Weather: Lightning observed
Temperature: 63.1 F (17.3 C)
Dew Point: 61.5 F (16.4 C)
Relative Humidity: 94%
Pressure (altimeter): 30.25 in. Hg (1024 hPa)
ob: KBCB 131235Z AUTO 00000KT 10SM CLR 17/16 A3025 RMK AO2 LTG DSNT SE T01730164
cycle: 12

Station Type Date Time Source
KBCB TAF 2022/08/13 12:22 UTC NOAA

TAF KBCB 131120Z 1312/1412 00000KT P6SM SCT250
FM131500 11004KT P6SM SCT050

Example: see airport list